sensor_id;sensor_type;location;lat;lon;timestamp;temperature;humidity
59855;DHT22;45732;52.850;6.896;2023-10-13T00:00:31;15.90;99.90
59855;DHT22;45732;52.850;6.896;2023-10-13T00:03:06;15.90;99.90
59855;DHT22;45732;52.850;6.896;2023-10-13T00:05:33;15.90;99.90
59855;DHT22;45732;52.850;6.896;2023-10-13T00:08:00;15.90;99.90
59855;DHT22;45732;52.850;6.896;2023-10-13T00:10:32;15.90;99.90
59855;DHT22;45732;52.850;6.896;2023-10-13T00:13:02;16.00;99.90
59855;DHT22;45732;52.850;6.896;2023-10-13T00:15:48;15.90;99.90
59855;DHT22;45732;52.850;6.896;2023-10-13T00:18:27;15.90;99.90
59855;DHT22;45732;52.850;6.896;2023-10-13T00:21:02;16.10;99.90
59855;DHT22;45732;52.850;6.896;2023-10-13T00:23:41;16.00;99.90
59855;DHT22;45732;52.850;6.896;2023-10-13T00:26:23;16.00;99.90
59855;DHT22;45732;52.850;6.896;2023-10-13T00:28:52;16.10;99.90
59855;DHT22;45732;52.850;6.896;2023-10-13T00:31:42;16.10;99.90
59855;DHT22;45732;52.850;6.896;2023-10-13T00:34:13;16.10;99.90
59855;DHT22;45732;52.850;6.896;2023-10-13T00:36:54;16.10;99.90
59855;DHT22;45732;52.850;6.896;2023-10-13T00:39:38;16.10;99.90
59855;DHT22;45732;52.850;6.896;2023-10-13T00:42:14;16.10;99.90
59855;DHT22;45732;52.850;6.896;2023-10-13T00:45:00;16.20;99.90
59855;DHT22;45732;52.850;6.896;2023-10-13T00:47:26;16.10;99.90
59855;DHT22;45732;52.850;6.896;2023-10-13T00:50:01;16.20;99.90
59855;DHT22;45732;52.850;6.896;2023-10-13T00:52:26;16.20;99.90
59855;DHT22;45732;52.850;6.896;2023-10-13T00:54:55;16.20;99.90
59855;DHT22;45732;52.850;6.896;2023-10-13T00:57:21;16.20;99.90
59855;DHT22;45732;52.850;6.896;2023-10-13T00:59:56;16.20;99.90
59855;DHT22;45732;52.850;6.896;2023-10-13T01:02:23;16.20;99.90
59855;DHT22;45732;52.850;6.896;2023-10-13T01:05:04;16.20;99.90
59855;DHT22;45732;52.850;6.896;2023-10-13T01:07:30;16.20;99.90
59855;DHT22;45732;52.850;6.896;2023-10-13T01:09:55;16.20;99.90
59855;DHT22;45732;52.850;6.896;2023-10-13T01:12:22;16.20;99.90
59855;DHT22;45732;52.850;6.896;2023-10-13T01:14:50;16.20;99.90
59855;DHT22;45732;52.850;6.896;2023-10-13T01:17:16;16.20;99.90
59855;DHT22;45732;52.850;6.896;2023-10-13T01:19:42;16.30;99.90
59855;DHT22;45732;52.850;6.896;2023-10-13T01:22:09;16.20;99.90
59855;DHT22;45732;52.850;6.896;2023-10-13T01:24:35;16.30;99.90
59855;DHT22;45732;52.850;6.896;2023-10-13T01:27:09;16.20;99.90
59855;DHT22;45732;52.850;6.896;2023-10-13T01:29:47;16.20;99.90
59855;DHT22;45732;52.850;6.896;2023-10-13T01:32:18;16.20;99.90
59855;DHT22;45732;52.850;6.896;2023-10-13T01:34:44;16.20;99.90
59855;DHT22;45732;52.850;6.896;2023-10-13T01:37:15;16.20;99.90
59855;DHT22;45732;52.850;6.896;2023-10-13T01:39:45;16.30;99.90
59855;DHT22;45732;52.850;6.896;2023-10-13T01:42:15;16.30;99.90
59855;DHT22;45732;52.850;6.896;2023-10-13T01:44:47;16.20;99.90
59855;DHT22;45732;52.850;6.896;2023-10-13T01:47:13;16.20;99.90
59855;DHT22;45732;52.850;6.896;2023-10-13T01:49:39;16.30;99.90
59855;DHT22;45732;52.850;6.896;2023-10-13T01:52:11;16.30;99.90
59855;DHT22;45732;52.850;6.896;2023-10-13T01:54:38;16.20;99.90
59855;DHT22;45732;52.850;6.896;2023-10-13T01:57:09;16.20;99.90
59855;DHT22;45732;52.850;6.896;2023-10-13T01:59:40;16.20;99.90
59855;DHT22;45732;52.850;6.896;2023-10-13T02:02:12;16.20;99.90
59855;DHT22;45732;52.850;6.896;2023-10-13T02:04:39;16.30;99.90
59855;DHT22;45732;52.850;6.896;2023-10-13T02:07:14;16.20;99.90
59855;DHT22;45732;52.850;6.896;2023-10-13T02:09:41;16.30;99.90
59855;DHT22;45732;52.850;6.896;2023-10-13T02:12:09;16.30;99.90
59855;DHT22;45732;52.850;6.896;2023-10-13T02:14:35;16.20;99.90
59855;DHT22;45732;52.850;6.896;2023-10-13T02:17:04;16.30;99.90
59855;DHT22;45732;52.850;6.896;2023-10-13T02:19:39;16.30;99.90
59855;DHT22;45732;52.850;6.896;2023-10-13T02:22:09;16.30;99.90
59855;DHT22;45732;52.850;6.896;2023-10-13T02:24:36;16.30;99.90
59855;DHT22;45732;52.850;6.896;2023-10-13T02:27:06;16.20;99.90
59855;DHT22;45732;52.850;6.896;2023-10-13T02:29:40;16.30;99.90
59855;DHT22;45732;52.850;6.896;2023-10-13T02:32:06;16.30;99.90
59855;DHT22;45732;52.850;6.896;2023-10-13T02:34:44;16.20;99.90
59855;DHT22;45732;52.850;6.896;2023-10-13T02:37:13;16.30;99.90
59855;DHT22;45732;52.850;6.896;2023-10-13T02:39:42;16.20;99.90
59855;DHT22;45732;52.850;6.896;2023-10-13T02:42:08;16.30;99.90
59855;DHT22;45732;52.850;6.896;2023-10-13T02:44:35;16.30;99.90
59855;DHT22;45732;52.850;6.896;2023-10-13T02:47:03;16.20;99.90
59855;DHT22;45732;52.850;6.896;2023-10-13T02:49:39;16.20;99.90
59855;DHT22;45732;52.850;6.896;2023-10-13T02:52:09;16.20;99.90
59855;DHT22;45732;52.850;6.896;2023-10-13T02:54:36;16.30;99.90
59855;DHT22;45732;52.850;6.896;2023-10-13T02:57:16;16.30;99.90
59855;DHT22;45732;52.850;6.896;2023-10-13T02:59:42;16.30;99.90
59855;DHT22;45732;52.850;6.896;2023-10-13T03:02:37;16.20;99.90
59855;DHT22;45732;52.850;6.896;2023-10-13T03:05:09;16.20;99.90
59855;DHT22;45732;52.850;6.896;2023-10-13T03:07:35;16.20;99.90
59855;DHT22;45732;52.850;6.896;2023-10-13T03:10:03;16.30;99.90
59855;DHT22;45732;52.850;6.896;2023-10-13T03:12:40;16.20;99.90
59855;DHT22;45732;52.850;6.896;2023-10-13T03:15:07;16.30;99.90
59855;DHT22;45732;52.850;6.896;2023-10-13T03:17:42;16.30;99.90
59855;DHT22;45732;52.850;6.896;2023-10-13T03:20:14;16.30;99.90
59855;DHT22;45732;52.850;6.896;2023-10-13T03:22:41;16.30;99.90
59855;DHT22;45732;52.850;6.896;2023-10-13T03:25:14;16.30;99.90
59855;DHT22;45732;52.850;6.896;2023-10-13T03:27:50;16.20;99.90
59855;DHT22;45732;52.850;6.896;2023-10-13T03:30:16;16.30;99.90
59855;DHT22;45732;52.850;6.896;2023-10-13T03:32:42;16.30;99.90
59855;DHT22;45732;52.850;6.896;2023-10-13T03:35:19;16.30;99.90
59855;DHT22;45732;52.850;6.896;2023-10-13T03:37:56;16.30;99.90
59855;DHT22;45732;52.850;6.896;2023-10-13T03:40:23;16.30;99.90
59855;DHT22;45732;52.850;6.896;2023-10-13T03:42:54;16.30;99.90
59855;DHT22;45732;52.850;6.896;2023-10-13T03:45:43;16.30;99.90
59855;DHT22;45732;52.850;6.896;2023-10-13T03:48:13;16.20;99.90
59855;DHT22;45732;52.850;6.896;2023-10-13T03:53:41;16.30;99.90
59855;DHT22;45732;52.850;6.896;2023-10-13T03:56:18;16.30;99.90
59855;DHT22;45732;52.850;6.896;2023-10-13T03:58:58;16.30;99.90
59855;DHT22;45732;52.850;6.896;2023-10-13T04:01:26;16.30;99.90
59855;DHT22;45732;52.850;6.896;2023-10-13T04:04:11;16.20;99.90
59855;DHT22;45732;52.850;6.896;2023-10-13T04:06:41;16.20;99.90
59855;DHT22;45732;52.850;6.896;2023-10-13T04:09:21;16.20;99.90
59855;DHT22;45732;52.850;6.896;2023-10-13T04:12:03;16.30;99.90
59855;DHT22;45732;52.850;6.896;2023-10-13T04:14:30;16.20;99.90
59855;DHT22;45732;52.850;6.896;2023-10-13T04:17:08;16.20;99.90
59855;DHT22;45732;52.850;6.896;2023-10-13T04:19:42;16.20;99.90
59855;DHT22;45732;52.850;6.896;2023-10-13T04:22:27;16.20;99.90
59855;DHT22;45732;52.850;6.896;2023-10-13T04:25:18;16.30;99.90
59855;DHT22;45732;52.850;6.896;2023-10-13T04:28:11;16.30;99.90
59855;DHT22;45732;52.850;6.896;2023-10-13T04:30:49;16.20;99.90
59855;DHT22;45732;52.850;6.896;2023-10-13T04:33:25;16.30;99.90
59855;DHT22;45732;52.850;6.896;2023-10-13T04:36:12;16.20;99.90
59855;DHT22;45732;52.850;6.896;2023-10-13T04:38:43;16.20;99.90
59855;DHT22;45732;52.850;6.896;2023-10-13T04:41:29;16.20;99.90
59855;DHT22;45732;52.850;6.896;2023-10-13T04:44:18;16.30;99.90
59855;DHT22;45732;52.850;6.896;2023-10-13T04:46:57;16.20;99.90
59855;DHT22;45732;52.850;6.896;2023-10-13T04:49:30;16.30;99.90
59855;DHT22;45732;52.850;6.896;2023-10-13T04:52:06;16.20;99.90
59855;DHT22;45732;52.850;6.896;2023-10-13T04:54:36;16.20;99.90
59855;DHT22;45732;52.850;6.896;2023-10-13T04:57:17;16.30;99.90
59855;DHT22;45732;52.850;6.896;2023-10-13T04:59:51;16.30;99.90
59855;DHT22;45732;52.850;6.896;2023-10-13T05:02:30;16.20;99.90
59855;DHT22;45732;52.850;6.896;2023-10-13T05:05:15;16.30;99.90
59855;DHT22;45732;52.850;6.896;2023-10-13T05:07:44;16.20;99.90
59855;DHT22;45732;52.850;6.896;2023-10-13T05:10:29;16.20;99.90
59855;DHT22;45732;52.850;6.896;2023-10-13T05:13:13;16.20;99.90
59855;DHT22;45732;52.850;6.896;2023-10-13T05:15:57;16.20;99.90
59855;DHT22;45732;52.850;6.896;2023-10-13T05:18:41;16.30;99.90
59855;DHT22;45732;52.850;6.896;2023-10-13T05:21:26;16.20;99.90
59855;DHT22;45732;52.850;6.896;2023-10-13T05:24:10;16.20;99.90
59855;DHT22;45732;52.850;6.896;2023-10-13T05:26:54;16.20;99.90
59855;DHT22;45732;52.850;6.896;2023-10-13T05:29:40;16.20;99.90
59855;DHT22;45732;52.850;6.896;2023-10-13T05:32:25;16.10;99.90
59855;DHT22;45732;52.850;6.896;2023-10-13T05:35:09;16.10;99.90
59855;DHT22;45732;52.850;6.896;2023-10-13T05:37:53;16.20;99.90
59855;DHT22;45732;52.850;6.896;2023-10-13T05:40:38;16.10;99.90
59855;DHT22;45732;52.850;6.896;2023-10-13T05:43:22;16.10;99.90
59855;DHT22;45732;52.850;6.896;2023-10-13T05:46:06;16.20;99.90
59855;DHT22;45732;52.850;6.896;2023-10-13T05:48:51;16.10;99.90
59855;DHT22;45732;52.850;6.896;2023-10-13T05:51:26;16.10;99.90
59855;DHT22;45732;52.850;6.896;2023-10-13T05:54:03;16.20;99.90
59855;DHT22;45732;52.850;6.896;2023-10-13T05:56:55;16.20;99.90
59855;DHT22;45732;52.850;6.896;2023-10-13T05:59:39;16.10;99.90
59855;DHT22;45732;52.850;6.896;2023-10-13T06:02:24;16.10;99.90
59855;DHT22;45732;52.850;6.896;2023-10-13T06:05:10;16.20;99.90
59855;DHT22;45732;52.850;6.896;2023-10-13T06:07:55;16.10;99.90
59855;DHT22;45732;52.850;6.896;2023-10-13T06:10:40;16.20;99.90
59855;DHT22;45732;52.850;6.896;2023-10-13T06:13:24;16.20;99.90
59855;DHT22;45732;52.850;6.896;2023-10-13T06:16:10;16.20;99.90
59855;DHT22;45732;52.850;6.896;2023-10-13T06:18:55;16.20;99.90
59855;DHT22;45732;52.850;6.896;2023-10-13T06:21:39;16.20;99.90
59855;DHT22;45732;52.850;6.896;2023-10-13T06:24:23;16.20;99.90
59855;DHT22;45732;52.850;6.896;2023-10-13T06:27:07;16.20;99.90
59855;DHT22;45732;52.850;6.896;2023-10-13T06:29:52;16.10;99.90
59855;DHT22;45732;52.850;6.896;2023-10-13T06:32:21;16.10;99.90
59855;DHT22;45732;52.850;6.896;2023-10-13T06:35:00;16.10;99.90
59855;DHT22;45732;52.850;6.896;2023-10-13T06:37:48;16.20;99.90
59855;DHT22;45732;52.850;6.896;2023-10-13T06:40:14;16.10;99.90
59855;DHT22;45732;52.850;6.896;2023-10-13T06:43:01;16.20;99.90
59855;DHT22;45732;52.850;6.896;2023-10-13T06:45:43;16.20;99.90
59855;DHT22;45732;52.850;6.896;2023-10-13T06:48:16;16.20;99.90
59855;DHT22;45732;52.850;6.896;2023-10-13T06:50:50;16.30;99.90
59855;DHT22;45732;52.850;6.896;2023-10-13T06:53:18;16.20;99.90
59855;DHT22;45732;52.850;6.896;2023-10-13T06:55:44;16.20;99.90
59855;DHT22;45732;52.850;6.896;2023-10-13T06:58:13;16.30;99.90
59855;DHT22;45732;52.850;6.896;2023-10-13T07:00:42;16.30;99.90
59855;DHT22;45732;52.850;6.896;2023-10-13T07:03:19;16.40;99.90
59855;DHT22;45732;52.850;6.896;2023-10-13T07:05:45;16.30;99.90
59855;DHT22;45732;52.850;6.896;2023-10-13T07:08:15;16.30;99.90
59855;DHT22;45732;52.850;6.896;2023-10-13T07:10:53;16.50;99.90
59855;DHT22;45732;52.850;6.896;2023-10-13T07:13:31;16.50;99.90
59855;DHT22;45732;52.850;6.896;2023-10-13T07:15:57;16.40;99.90
59855;DHT22;45732;52.850;6.896;2023-10-13T07:18:30;16.50;99.90
59855;DHT22;45732;52.850;6.896;2023-10-13T07:21:08;16.50;99.90
59855;DHT22;45732;52.850;6.896;2023-10-13T07:23:37;16.40;99.90
59855;DHT22;45732;52.850;6.896;2023-10-13T07:26:05;16.50;99.90
59855;DHT22;45732;52.850;6.896;2023-10-13T07:28:34;16.40;99.90
59855;DHT22;45732;52.850;6.896;2023-10-13T07:31:12;16.50;99.90
59855;DHT22;45732;52.850;6.896;2023-10-13T07:33:38;16.50;99.90
59855;DHT22;45732;52.850;6.896;2023-10-13T07:36:07;16.50;99.90
59855;DHT22;45732;52.850;6.896;2023-10-13T07:38:45;16.50;99.90
59855;DHT22;45732;52.850;6.896;2023-10-13T07:41:15;16.50;99.90
59855;DHT22;45732;52.850;6.896;2023-10-13T07:43:47;16.50;99.90
59855;DHT22;45732;52.850;6.896;2023-10-13T07:46:15;16.50;99.90
59855;DHT22;45732;52.850;6.896;2023-10-13T07:48:41;16.50;99.90
59855;DHT22;45732;52.850;6.896;2023-10-13T07:51:11;16.50;99.90
59855;DHT22;45732;52.850;6.896;2023-10-13T07:53:42;16.50;99.90
59855;DHT22;45732;52.850;6.896;2023-10-13T07:56:09;16.50;99.90
59855;DHT22;45732;52.850;6.896;2023-10-13T07:58:40;16.50;99.90
59855;DHT22;45732;52.850;6.896;2023-10-13T08:01:21;16.50;99.90
59855;DHT22;45732;52.850;6.896;2023-10-13T08:03:47;16.60;99.90
59855;DHT22;45732;52.850;6.896;2023-10-13T08:06:22;16.60;99.90
59855;DHT22;45732;52.850;6.896;2023-10-13T08:08:51;16.60;99.90
59855;DHT22;45732;52.850;6.896;2023-10-13T08:11:24;16.60;99.90
59855;DHT22;45732;52.850;6.896;2023-10-13T08:16:30;16.60;99.90
59855;DHT22;45732;52.850;6.896;2023-10-13T08:19:27;16.60;99.90
59855;DHT22;45732;52.850;6.896;2023-10-13T08:21:55;16.70;99.90
59855;DHT22;45732;52.850;6.896;2023-10-13T08:24:51;16.60;99.90
59855;DHT22;45732;52.850;6.896;2023-10-13T08:27:21;16.60;99.90
59855;DHT22;45732;52.850;6.896;2023-10-13T08:30:06;16.70;99.90
59855;DHT22;45732;52.850;6.896;2023-10-13T08:32:50;16.70;99.90
59855;DHT22;45732;52.850;6.896;2023-10-13T08:35:42;16.70;99.90
59855;DHT22;45732;52.850;6.896;2023-10-13T08:38:20;16.60;99.90
59855;DHT22;45732;52.850;6.896;2023-10-13T08:40:58;16.70;99.90
59855;DHT22;45732;52.850;6.896;2023-10-13T08:43:43;16.70;99.90
59855;DHT22;45732;52.850;6.896;2023-10-13T08:46:10;16.70;99.90
59855;DHT22;45732;52.850;6.896;2023-10-13T08:48:59;16.80;99.90
59855;DHT22;45732;52.850;6.896;2023-10-13T08:51:52;16.80;99.90
59855;DHT22;45732;52.850;6.896;2023-10-13T08:54:33;16.80;99.90
59855;DHT22;45732;52.850;6.896;2023-10-13T08:57:01;16.80;99.90
59855;DHT22;45732;52.850;6.896;2023-10-13T08:59:55;16.90;99.90
59855;DHT22;45732;52.850;6.896;2023-10-13T09:02:22;17.00;99.90
59855;DHT22;45732;52.850;6.896;2023-10-13T09:05:09;17.00;99.90
59855;DHT22;45732;52.850;6.896;2023-10-13T09:07:55;17.00;99.90
59855;DHT22;45732;52.850;6.896;2023-10-13T09:10:24;17.20;99.90
59855;DHT22;45732;52.850;6.896;2023-10-13T09:12:59;17.20;99.90
59855;DHT22;45732;52.850;6.896;2023-10-13T09:15:30;17.30;99.90
59855;DHT22;45732;52.850;6.896;2023-10-13T09:18:29;17.40;99.90
59855;DHT22;45732;52.850;6.896;2023-10-13T09:21:08;17.30;99.90
59855;DHT22;45732;52.850;6.896;2023-10-13T09:24:04;17.40;99.90
59855;DHT22;45732;52.850;6.896;2023-10-13T09:26:50;17.40;99.90
59855;DHT22;45732;52.850;6.896;2023-10-13T09:29:21;17.40;99.90
59855;DHT22;45732;52.850;6.896;2023-10-13T09:31:57;17.60;99.90
59855;DHT22;45732;52.850;6.896;2023-10-13T09:34:25;17.70;99.90
59855;DHT22;45732;52.850;6.896;2023-10-13T09:36:58;17.70;99.90
59855;DHT22;45732;52.850;6.896;2023-10-13T09:39:27;17.60;99.90
59855;DHT22;45732;52.850;6.896;2023-10-13T09:42:00;17.70;99.90
59855;DHT22;45732;52.850;6.896;2023-10-13T09:44:26;17.80;99.90
59855;DHT22;45732;52.850;6.896;2023-10-13T09:47:03;17.80;99.90
59855;DHT22;45732;52.850;6.896;2023-10-13T09:49:49;17.70;99.90
59855;DHT22;45732;52.850;6.896;2023-10-13T09:52:19;17.70;99.90
59855;DHT22;45732;52.850;6.896;2023-10-13T09:55:17;17.80;99.90
59855;DHT22;45732;52.850;6.896;2023-10-13T09:57:45;17.80;99.90
59855;DHT22;45732;52.850;6.896;2023-10-13T10:00:18;17.90;99.90
59855;DHT22;45732;52.850;6.896;2023-10-13T10:03:07;17.80;99.90
59855;DHT22;45732;52.850;6.896;2023-10-13T10:05:56;17.90;99.90
59855;DHT22;45732;52.850;6.896;2023-10-13T10:08:29;17.90;99.90
59855;DHT22;45732;52.850;6.896;2023-10-13T10:14:10;17.90;99.90
59855;DHT22;45732;52.850;6.896;2023-10-13T10:17:05;18.10;99.90
59855;DHT22;45732;52.850;6.896;2023-10-13T10:19:54;18.10;99.90
59855;DHT22;45732;52.850;6.896;2023-10-13T10:22:28;18.20;99.90
59855;DHT22;45732;52.850;6.896;2023-10-13T10:24:59;18.10;99.90
59855;DHT22;45732;52.850;6.896;2023-10-13T10:27:30;18.20;99.90
59855;DHT22;45732;52.850;6.896;2023-10-13T10:29:56;18.20;99.90
59855;DHT22;45732;52.850;6.896;2023-10-13T10:32:33;18.30;99.90
59855;DHT22;45732;52.850;6.896;2023-10-13T10:35:06;18.30;99.90
59855;DHT22;45732;52.850;6.896;2023-10-13T10:37:34;18.30;99.90
59855;DHT22;45732;52.850;6.896;2023-10-13T10:40:01;18.40;99.90
59855;DHT22;45732;52.850;6.896;2023-10-13T10:42:31;18.40;99.90
59855;DHT22;45732;52.850;6.896;2023-10-13T10:44:57;18.40;99.90
59855;DHT22;45732;52.850;6.896;2023-10-13T10:47:31;18.40;99.90
59855;DHT22;45732;52.850;6.896;2023-10-13T10:49:58;18.50;99.90
59855;DHT22;45732;52.850;6.896;2023-10-13T10:52:27;18.40;99.90
59855;DHT22;45732;52.850;6.896;2023-10-13T10:55:00;18.50;99.90
59855;DHT22;45732;52.850;6.896;2023-10-13T10:57:25;18.50;99.90
59855;DHT22;45732;52.850;6.896;2023-10-13T11:00:03;18.50;99.90
59855;DHT22;45732;52.850;6.896;2023-10-13T11:02:40;18.60;99.90
59855;DHT22;45732;52.850;6.896;2023-10-13T11:05:08;18.60;99.90
59855;DHT22;45732;52.850;6.896;2023-10-13T11:07:46;18.60;99.90
59855;DHT22;45732;52.850;6.896;2023-10-13T11:10:18;18.70;99.90
59855;DHT22;45732;52.850;6.896;2023-10-13T11:12:59;18.60;99.90
59855;DHT22;45732;52.850;6.896;2023-10-13T11:15:47;18.60;99.90
59855;DHT22;45732;52.850;6.896;2023-10-13T11:18:14;18.60;99.90
59855;DHT22;45732;52.850;6.896;2023-10-13T11:20:47;18.60;99.90
59855;DHT22;45732;52.850;6.896;2023-10-13T11:23:20;18.70;99.90
59855;DHT22;45732;52.850;6.896;2023-10-13T11:26:00;18.70;99.90
59855;DHT22;45732;52.850;6.896;2023-10-13T11:28:26;18.70;99.90
59855;DHT22;45732;52.850;6.896;2023-10-13T11:30:55;18.70;99.90
59855;DHT22;45732;52.850;6.896;2023-10-13T11:33:25;18.80;99.90
59855;DHT22;45732;52.850;6.896;2023-10-13T11:35:54;18.80;99.90
59855;DHT22;45732;52.850;6.896;2023-10-13T11:40:59;18.90;99.90
59855;DHT22;45732;52.850;6.896;2023-10-13T11:43:35;18.90;99.90
59855;DHT22;45732;52.850;6.896;2023-10-13T11:46:07;19.00;99.90
59855;DHT22;45732;52.850;6.896;2023-10-13T11:48:40;19.00;99.90
59855;DHT22;45732;52.850;6.896;2023-10-13T11:51:16;19.10;99.90
59855;DHT22;45732;52.850;6.896;2023-10-13T11:53:59;19.20;99.90
59855;DHT22;45732;52.850;6.896;2023-10-13T11:56:25;19.20;99.90
59855;DHT22;45732;52.850;6.896;2023-10-13T11:58:51;19.40;99.90
59855;DHT22;45732;52.850;6.896;2023-10-13T12:01:17;19.40;99.90
59855;DHT22;45732;52.850;6.896;2023-10-13T12:03:45;19.40;99.90
59855;DHT22;45732;52.850;6.896;2023-10-13T12:06:31;19.40;99.90
59855;DHT22;45732;52.850;6.896;2023-10-13T12:09:07;19.40;99.90
59855;DHT22;45732;52.850;6.896;2023-10-13T12:11:49;19.40;99.90
59855;DHT22;45732;52.850;6.896;2023-10-13T12:14:20;19.30;99.90
59855;DHT22;45732;52.850;6.896;2023-10-13T12:16:55;19.30;99.90
59855;DHT22;45732;52.850;6.896;2023-10-13T12:19:22;19.30;99.90
59855;DHT22;45732;52.850;6.896;2023-10-13T12:21:54;19.30;99.90
59855;DHT22;45732;52.850;6.896;2023-10-13T12:24:24;19.30;99.90
59855;DHT22;45732;52.850;6.896;2023-10-13T12:27:06;19.30;99.90
59855;DHT22;45732;52.850;6.896;2023-10-13T12:29:51;19.30;99.90
59855;DHT22;45732;52.850;6.896;2023-10-13T12:32:20;19.30;99.90
59855;DHT22;45732;52.850;6.896;2023-10-13T12:34:48;19.30;99.90
59855;DHT22;45732;52.850;6.896;2023-10-13T12:37:45;19.30;99.90
59855;DHT22;45732;52.850;6.896;2023-10-13T12:40:17;19.30;99.90
59855;DHT22;45732;52.850;6.896;2023-10-13T12:43:01;19.30;99.90
59855;DHT22;45732;52.850;6.896;2023-10-13T12:45:47;19.30;99.90
59855;DHT22;45732;52.850;6.896;2023-10-13T12:48:32;19.40;99.90
59855;DHT22;45732;52.850;6.896;2023-10-13T12:51:16;19.40;99.90
59855;DHT22;45732;52.850;6.896;2023-10-13T12:56:13;19.40;99.90
59855;DHT22;45732;52.850;6.896;2023-10-13T12:58:39;19.50;99.90
59855;DHT22;45732;52.850;6.896;2023-10-13T13:01:04;19.60;99.90
59855;DHT22;45732;52.850;6.896;2023-10-13T13:03:34;19.80;99.90
59855;DHT22;45732;52.850;6.896;2023-10-13T13:06:00;19.70;99.90
59855;DHT22;45732;52.850;6.896;2023-10-13T13:08:33;19.80;99.90
59855;DHT22;45732;52.850;6.896;2023-10-13T13:11:01;19.90;99.90
59855;DHT22;45732;52.850;6.896;2023-10-13T13:13:28;19.80;99.90
59855;DHT22;45732;52.850;6.896;2023-10-13T13:15:53;19.90;99.90
59855;DHT22;45732;52.850;6.896;2023-10-13T13:18:19;19.90;99.90
59855;DHT22;45732;52.850;6.896;2023-10-13T13:20:45;20.00;99.90
59855;DHT22;45732;52.850;6.896;2023-10-13T13:23:23;19.90;99.90
59855;DHT22;45732;52.850;6.896;2023-10-13T13:25:52;20.00;99.90
59855;DHT22;45732;52.850;6.896;2023-10-13T13:28:18;20.00;99.90
59855;DHT22;45732;52.850;6.896;2023-10-13T13:30:44;20.00;99.90
59855;DHT22;45732;52.850;6.896;2023-10-13T13:33:16;20.00;99.90
59855;DHT22;45732;52.850;6.896;2023-10-13T13:35:42;20.00;99.90
59855;DHT22;45732;52.850;6.896;2023-10-13T13:38:09;19.90;99.90
59855;DHT22;45732;52.850;6.896;2023-10-13T13:40:55;19.90;99.90
59855;DHT22;45732;52.850;6.896;2023-10-13T13:43:24;19.90;99.90
59855;DHT22;45732;52.850;6.896;2023-10-13T13:46:19;20.00;99.90
59855;DHT22;45732;52.850;6.896;2023-10-13T13:48:53;20.00;99.90
59855;DHT22;45732;52.850;6.896;2023-10-13T13:51:27;19.90;99.90
59855;DHT22;45732;52.850;6.896;2023-10-13T13:53:58;20.00;99.90
59855;DHT22;45732;52.850;6.896;2023-10-13T13:56:24;19.90;99.90
59855;DHT22;45732;52.850;6.896;2023-10-13T13:58:54;19.80;99.90
59855;DHT22;45732;52.850;6.896;2023-10-13T14:01:24;19.70;99.90
59855;DHT22;45732;52.850;6.896;2023-10-13T14:03:54;19.60;99.90
59855;DHT22;45732;52.850;6.896;2023-10-13T14:06:28;19.50;99.90
59855;DHT22;45732;52.850;6.896;2023-10-13T14:08:58;19.40;99.90
59855;DHT22;45732;52.850;6.896;2023-10-13T14:12:01;19.30;99.90
59855;DHT22;45732;52.850;6.896;2023-10-13T14:14:45;19.20;99.90
59855;DHT22;45732;52.850;6.896;2023-10-13T14:17:24;19.10;99.90
59855;DHT22;45732;52.850;6.896;2023-10-13T14:20:01;19.10;99.90
59855;DHT22;45732;52.850;6.896;2023-10-13T14:22:35;19.10;99.90
59855;DHT22;45732;52.850;6.896;2023-10-13T14:25:03;19.00;99.90
59855;DHT22;45732;52.850;6.896;2023-10-13T14:27:35;19.00;99.90
59855;DHT22;45732;52.850;6.896;2023-10-13T14:30:02;19.00;99.90
59855;DHT22;45732;52.850;6.896;2023-10-13T14:32:28;19.00;99.90
59855;DHT22;45732;52.850;6.896;2023-10-13T14:34:54;19.00;99.90
59855;DHT22;45732;52.850;6.896;2023-10-13T14:37:22;19.00;99.90
59855;DHT22;45732;52.850;6.896;2023-10-13T14:39:56;18.90;99.90
59855;DHT22;45732;52.850;6.896;2023-10-13T14:42:31;18.90;99.90
59855;DHT22;45732;52.850;6.896;2023-10-13T14:45:01;18.90;99.90
59855;DHT22;45732;52.850;6.896;2023-10-13T14:47:26;18.90;99.90
59855;DHT22;45732;52.850;6.896;2023-10-13T14:49:53;18.90;99.90
59855;DHT22;45732;52.850;6.896;2023-10-13T14:52:25;18.90;99.90
59855;DHT22;45732;52.850;6.896;2023-10-13T14:54:51;18.90;99.90
59855;DHT22;45732;52.850;6.896;2023-10-13T14:57:23;18.90;99.90
59855;DHT22;45732;52.850;6.896;2023-10-13T14:59:55;18.80;99.90
59855;DHT22;45732;52.850;6.896;2023-10-13T15:02:22;18.90;99.90
59855;DHT22;45732;52.850;6.896;2023-10-13T15:04:48;18.80;99.90
59855;DHT22;45732;52.850;6.896;2023-10-13T15:07:15;18.80;99.90
59855;DHT22;45732;52.850;6.896;2023-10-13T15:09:43;18.70;99.90
59855;DHT22;45732;52.850;6.896;2023-10-13T15:12:10;18.50;99.90
59855;DHT22;45732;52.850;6.896;2023-10-13T15:14:39;18.50;99.90
59855;DHT22;45732;52.850;6.896;2023-10-13T15:17:08;18.40;99.90
59855;DHT22;45732;52.850;6.896;2023-10-13T15:19:38;18.30;99.90
59855;DHT22;45732;52.850;6.896;2023-10-13T15:22:08;18.30;99.90
59855;DHT22;45732;52.850;6.896;2023-10-13T15:24:38;18.20;99.90
59855;DHT22;45732;52.850;6.896;2023-10-13T15:27:25;18.10;99.90
59855;DHT22;45732;52.850;6.896;2023-10-13T15:29:54;18.10;99.90
59855;DHT22;45732;52.850;6.896;2023-10-13T15:32:20;18.10;99.90
59855;DHT22;45732;52.850;6.896;2023-10-13T15:35:04;18.10;99.90
59855;DHT22;45732;52.850;6.896;2023-10-13T15:37:30;18.10;99.90
59855;DHT22;45732;52.850;6.896;2023-10-13T15:39:56;18.00;99.90
59855;DHT22;45732;52.850;6.896;2023-10-13T15:42:23;18.00;99.90
59855;DHT22;45732;52.850;6.896;2023-10-13T15:44:50;17.90;99.90
59855;DHT22;45732;52.850;6.896;2023-10-13T15:47:16;17.90;99.90
59855;DHT22;45732;52.850;6.896;2023-10-13T15:49:42;17.90;99.90
59855;DHT22;45732;52.850;6.896;2023-10-13T15:52:08;17.90;99.90
59855;DHT22;45732;52.850;6.896;2023-10-13T15:54:37;17.90;99.90
59855;DHT22;45732;52.850;6.896;2023-10-13T15:57:03;17.90;99.90
59855;DHT22;45732;52.850;6.896;2023-10-13T15:59:32;17.80;99.90
59855;DHT22;45732;52.850;6.896;2023-10-13T16:02:00;17.80;99.90
59855;DHT22;45732;52.850;6.896;2023-10-13T16:04:25;17.80;99.90
59855;DHT22;45732;52.850;6.896;2023-10-13T16:06:51;17.80;99.90
59855;DHT22;45732;52.850;6.896;2023-10-13T16:09:17;17.80;99.90
59855;DHT22;45732;52.850;6.896;2023-10-13T16:11:49;17.80;99.90
59855;DHT22;45732;52.850;6.896;2023-10-13T16:14:16;17.80;99.90
59855;DHT22;45732;52.850;6.896;2023-10-13T16:16:47;17.80;99.90
59855;DHT22;45732;52.850;6.896;2023-10-13T16:19:16;17.80;99.90
59855;DHT22;45732;52.850;6.896;2023-10-13T16:21:52;17.80;99.90
59855;DHT22;45732;52.850;6.896;2023-10-13T16:24:18;17.80;99.90
59855;DHT22;45732;52.850;6.896;2023-10-13T16:26:45;17.80;99.90